• Join FlightAware (Why Join?)
  • Login
  • US Flag 
03:21AM EST


 

Airport Tracker/Info


-or-


 

Live Flight TrackerFlight Track Log ✈ UAL5942 ✈ 02-May-2013 ✈ KORD - KSGF

Flight Track Log - Related Links

Times and Time Zones

All times are in EDT time to prevent confusion due to time zone crossing. See the UAL5942 flight status page for this flight to view local times or setup timezone preferences in your user account.

Time Position Orientation Groundspeed Altitude Reporting Facility
EDT Latitude Longitude Course Direction KTS MPH feet Rate Location/Type
06:17PM 41.9667 -87.8500 143° Southeast 188 216 2,800  Level Chicago TRACON
06:18PM 41.9167 -87.8000 143° Southeast 230 265 4,500 720 Climbing Chicago TRACON
06:20PM 41.8042 -87.7722 170° South 240 276 5,000 780 Climbing Chicago Center
06:21PM 41.7472 -87.8256 215° Southwest 256 295 6,900 1,860 Climbing Chicago Center
06:22PM 41.6897 -87.8856 218° Southwest 264 304 8,900 2,160 Climbing Chicago Center
06:23PM 41.6175 -87.9592 217° Southwest 273 314 11,400 1,980 Climbing Chicago Center
06:24PM 41.5569 -88.0217 218° Southwest 276 318 13,100 1,560 Climbing Chicago Center
06:25PM 41.4942 -88.0856 217° Southwest 285 328 14,700 1,500 Climbing Chicago Center
06:26PM 41.4331 -88.1500 218° Southwest 291 335 16,200 1,200 Climbing Chicago Center
06:27PM 41.3472 -88.2061 206° Southwest 305 351 17,200 1,020 Climbing Chicago Center
06:28PM 41.2700 -88.2403 198° South 297 342 18,400 1,020 Climbing Chicago Center
06:29PM 41.1903 -88.2775 199° South 304 350 19,400 960 Climbing Chicago Center
06:30PM 41.1025 -88.3172 199° South 329 379 20,400 960 Climbing Chicago Center
06:31PM 40.9931 -88.3672 199° South 350 403 21,500 960 Climbing Chicago Center
06:32PM 40.8981 -88.4086 198° South 357 411 22,400 900 Climbing Chicago Center
06:33PM 40.8008 -88.4528 199° South 368 423 23,400 900 Climbing Chicago Center
06:34PM 40.7069 -88.5111 205° Southwest 379 436 24,300 840 Climbing Chicago Center
06:35PM 40.6381 -88.6158 229° Southwest 381 438 25,200 1,020 Climbing Chicago Center
06:37PM 40.5561 -88.7397 229° Southwest 378 435 26,500 1,200 Climbing Chicago Center
06:38PM 40.4886 -88.8400 229° Southwest 372 428 27,700 1,080 Climbing Chicago Center
06:39PM 40.4222 -88.9403 229° Southwest 369 425 28,800 1,020 Climbing Chicago Center
06:40PM 40.3569 -89.0389 229° Southwest 364 419 29,900 1,020 Climbing Chicago Center
06:41PM 40.2939 -89.1339 229° Southwest 350 403 31,000 960 Climbing Chicago Center
06:42PM 40.2283 -89.2308 228° Southwest 351 404 32,000 480 Climbing Chicago Center
06:43PM 40.1600 -89.3306 228° Southwest 361 415 32,000  Level Chicago Center
06:44PM 40.0719 -89.4653 230° Southwest 401 461 32,000  Level Chicago Center
06:45PM 39.9958 -89.5775 229° Southwest 405 466 32,000  Level Chicago Center
06:46PM 39.9356 -89.6647 228° Southwest 406 467 32,000  Level Kansas City Center
06:47PM 39.8642 -89.7708 229° Southwest 395 455 32,000  Level Kansas City Center
06:48PM 39.7917 -89.8758 228° Southwest 390 449 32,000  Level Kansas City Center
06:49PM 39.7172 -89.9819 228° Southwest 392 451 32,000  Level Kansas City Center
06:50PM 39.6450 -90.0894 229° Southwest 394 453 32,000  Level Kansas City Center
06:51PM 39.5547 -90.2194 228° Southwest 402 463 32,000  Level Kansas City Center
06:52PM 39.4803 -90.3281 228° Southwest 404 465 32,000  Level Kansas City Center
06:53PM 39.4053 -90.4367 228° Southwest 406 467 32,000  Level Kansas City Center
06:54PM 39.3300 -90.5444 228° Southwest 407 468 32,000  Level Kansas City Center
06:55PM 39.2544 -90.6511 228° Southwest 405 466 32,000  Level Kansas City Center
06:56PM 39.1656 -90.7775 228° Southwest 400 460 32,000  Level Kansas City Center
06:57PM 39.0906 -90.8833 228° Southwest 402 463 32,000  Level Kansas City Center
06:58PM 39.0158 -90.9900 228° Southwest 404 465 32,000  Level Kansas City Center
06:59PM 38.9392 -91.0981 228° Southwest 407 468 32,000  Level Kansas City Center
07:00PM 38.8628 -91.2044 227° Southwest 409 471 32,000  Level Kansas City Center
07:01PM 38.7861 -91.3111 227° Southwest 409 471 32,000  Level Kansas City Center
07:02PM 38.6958 -91.4389 228° Southwest 405 466 32,000  Level Kansas City Center
07:03PM 38.6203 -91.5456 228° Southwest 403 464 32,000  Level Kansas City Center
07:04PM 38.5433 -91.6514 227° Southwest 405 466 32,000  Level Kansas City Center
07:05PM 38.4664 -91.7572 227° Southwest 405 466 32,000 -60 Level Kansas City Center
07:06PM 38.3889 -91.8625 227° Southwest 406 467 31,900 -1,020 Descending Kansas City Center
07:07PM 38.3136 -91.9656 227° Southwest 400 460 29,900 -2,160 Descending Kansas City Center
07:08PM 38.2219 -92.0886 227° Southwest 399 459 27,500 -2,100 Descending Kansas City Center
07:09PM 38.1492 -92.1883 227° Southwest 409 471 25,600 -1,920 Descending Kansas City Center
07:10PM 38.0692 -92.2942 226° Southwest 416 479 23,600 -1,980 Descending Kansas City Center
07:11PM 37.9919 -92.3981 227° Southwest 411 473 21,600 -1,980 Descending Kansas City Center
07:12PM 37.9153 -92.4972 226° Southwest 404 465 19,600 -2,040 Descending Kansas City Center
07:13PM 37.8317 -92.6131 228° Southwest 387 445 17,500 -2,040 Descending Kansas City Center
07:15PM 37.7625 -92.7014 225° Southwest 370 426 15,500 -1,980 Descending Kansas City Center
07:16PM 37.6775 -92.7608 209° Southwest 356 410 13,500 -1,980 Descending Kansas City Center
07:17PM 37.5981 -92.8203 211° Southwest 343 395 11,500 -1,740 Descending Kansas City Center
07:18PM 37.5261 -92.8744 211° Southwest 319 367 10,000 -1,560 Descending Kansas City Center
07:19PM 37.4622 -92.9256 212° Southwest 291 335 8,400 -1,500 Descending Kansas City Center
07:20PM 37.4039 -92.9789 216° Southwest 273 314 7,000 -1,440 Descending Kansas City Center
07:21PM 37.3375 -93.0403 216° Southwest 256 295 5,500 -1,020 Descending Kansas City Center
07:22PM 37.2819 -93.0911 216° Southwest 249 287 5,000 -300 Descending Kansas City Center
07:23PM 37.2219 -93.1428 214° Southwest 253 291 5,000 -300 Level Kansas City Center
07:24PM 37.1669 -93.1975 218° Southwest 254 292 4,500 -960 Descending Kansas City Center
07:25PM 37.1211 -93.2672 231° Southwest 254 292 3,100 -720 Descending Kansas City Center
07:26PM 37.0694 -93.3450 230° Southwest 253 291 3,100  Level Kansas City Center
07:28PM 37.2215 -93.3827 349° North  Level Estimated
07:35PM 37.2457 -93.3886 349° North  Level Estimated